sensor_id;sensor_type;location;lat;lon;timestamp;pressure;altitude;pressure_sealevel;temperature;humidity
25855;BME280;13680;49.936;11.344;2024-03-08T00:01:05;96922.13;;;2.72;67.22
25855;BME280;13680;49.936;11.344;2024-03-08T00:03:32;96922.84;;;2.67;67.48
25855;BME280;13680;49.936;11.344;2024-03-08T00:05:58;96922.38;;;2.53;68.61
25855;BME280;13680;49.936;11.344;2024-03-08T00:08:23;96918.44;;;2.56;68.17
25855;BME280;13680;49.936;11.344;2024-03-08T00:10:49;96915.94;;;2.66;67.66
25855;BME280;13680;49.936;11.344;2024-03-08T00:13:14;96909.84;;;2.66;67.58
25855;BME280;13680;49.936;11.344;2024-03-08T00:15:40;96904.78;;;2.64;67.42
25855;BME280;13680;49.936;11.344;2024-03-08T00:18:07;96909.69;;;2.38;68.98
25855;BME280;13680;49.936;11.344;2024-03-08T00:20:33;96904.00;;;2.47;68.74
25855;BME280;13680;49.936;11.344;2024-03-08T00:22:58;96908.19;;;2.42;68.61
25855;BME280;13680;49.936;11.344;2024-03-08T00:25:24;96914.09;;;2.50;68.65
25855;BME280;13680;49.936;11.344;2024-03-08T00:27:49;96910.91;;;2.48;68.67
25855;BME280;13680;49.936;11.344;2024-03-08T00:30:14;96906.50;;;2.36;69.67
25855;BME280;13680;49.936;11.344;2024-03-08T00:32:40;96908.19;;;2.08;70.38
25855;BME280;13680;49.936;11.344;2024-03-08T00:35:05;96904.56;;;2.32;70.54
25855;BME280;13680;49.936;11.344;2024-03-08T00:37:32;96901.25;;;2.41;69.63
25855;BME280;13680;49.936;11.344;2024-03-08T00:39:59;96897.63;;;2.48;69.46
25855;BME280;13680;49.936;11.344;2024-03-08T00:42:24;96898.47;;;2.31;70.28
25855;BME280;13680;49.936;11.344;2024-03-08T00:44:50;96898.09;;;2.44;69.77
25855;BME280;13680;49.936;11.344;2024-03-08T00:47:16;96892.31;;;2.48;69.74
25855;BME280;13680;49.936;11.344;2024-03-08T00:49:41;96893.06;;;2.43;69.74
25855;BME280;13680;49.936;11.344;2024-03-08T00:52:07;96883.94;;;2.56;69.43
25855;BME280;13680;49.936;11.344;2024-03-08T00:54:36;96874.44;;;2.60;69.08
25855;BME280;13680;49.936;11.344;2024-03-08T00:57:02;96868.81;;;2.56;68.85
25855;BME280;13680;49.936;11.344;2024-03-08T00:59:28;96881.28;;;2.56;68.92
25855;BME280;13680;49.936;11.344;2024-03-08T01:01:53;96875.47;;;2.59;68.72
25855;BME280;13680;49.936;11.344;2024-03-08T01:04:20;96862.78;;;2.61;68.71
25855;BME280;13680;49.936;11.344;2024-03-08T01:06:46;96861.72;;;2.62;68.70
25855;BME280;13680;49.936;11.344;2024-03-08T01:09:12;96862.28;;;2.64;68.27
25855;BME280;13680;49.936;11.344;2024-03-08T01:11:38;96860.63;;;2.58;68.58
25855;BME280;13680;49.936;11.344;2024-03-08T01:14:03;96858.94;;;2.52;68.32
25855;BME280;13680;49.936;11.344;2024-03-08T01:16:28;96853.13;;;2.55;68.55
25855;BME280;13680;49.936;11.344;2024-03-08T01:18:53;96853.41;;;2.36;68.56
25855;BME280;13680;49.936;11.344;2024-03-08T01:21:19;96862.00;;;2.43;68.46
25855;BME280;13680;49.936;11.344;2024-03-08T01:23:44;96848.97;;;2.42;68.45
25855;BME280;13680;49.936;11.344;2024-03-08T01:26:09;96854.09;;;2.09;70.16
25855;BME280;13680;49.936;11.344;2024-03-08T01:28:35;96841.91;;;2.31;69.30
25855;BME280;13680;49.936;11.344;2024-03-08T01:31:00;96844.31;;;2.32;69.25
25855;BME280;13680;49.936;11.344;2024-03-08T01:33:26;96838.53;;;2.35;69.17
25855;BME280;13680;49.936;11.344;2024-03-08T01:35:53;96834.19;;;2.29;69.13
25855;BME280;13680;49.936;11.344;2024-03-08T01:38:19;96834.44;;;2.27;69.36
25855;BME280;13680;49.936;11.344;2024-03-08T01:40:46;96838.72;;;2.28;69.62
25855;BME280;13680;49.936;11.344;2024-03-08T01:43:24;96828.09;;;2.28;69.57
25855;BME280;13680;49.936;11.344;2024-03-08T01:45:51;96815.09;;;2.10;70.16
25855;BME280;13680;49.936;11.344;2024-03-08T01:48:17;96821.25;;;2.16;70.06
25855;BME280;13680;49.936;11.344;2024-03-08T01:50:43;96820.47;;;2.15;70.30
25855;BME280;13680;49.936;11.344;2024-03-08T01:53:09;96812.91;;;2.24;69.88
25855;BME280;13680;49.936;11.344;2024-03-08T01:55:37;96819.28;;;2.06;70.08
25855;BME280;13680;49.936;11.344;2024-03-08T01:58:04;96811.72;;;1.98;70.48
25855;BME280;13680;49.936;11.344;2024-03-08T02:00:31;96814.22;;;2.04;70.44
25855;BME280;13680;49.936;11.344;2024-03-08T02:02:58;96803.91;;;2.08;70.07
25855;BME280;13680;49.936;11.344;2024-03-08T02:05:23;96801.19;;;2.03;70.35
25855;BME280;13680;49.936;11.344;2024-03-08T02:07:49;96801.38;;;1.96;70.89
25855;BME280;13680;49.936;11.344;2024-03-08T02:10:14;96795.59;;;1.99;70.16
25855;BME280;13680;49.936;11.344;2024-03-08T02:12:40;96793.97;;;1.98;70.46
25855;BME280;13680;49.936;11.344;2024-03-08T02:15:06;96786.88;;;2.04;70.70
25855;BME280;13680;49.936;11.344;2024-03-08T02:17:32;96781.13;;;2.07;70.23
25855;BME280;13680;49.936;11.344;2024-03-08T02:19:59;96787.69;;;2.04;70.67
25855;BME280;13680;49.936;11.344;2024-03-08T02:22:27;96782.53;;;2.15;70.94
25855;BME280;13680;49.936;11.344;2024-03-08T02:24:54;96776.78;;;2.01;71.83
25855;BME280;13680;49.936;11.344;2024-03-08T02:27:24;96775.16;;;2.00;71.66
25855;BME280;13680;49.936;11.344;2024-03-08T02:29:50;96768.59;;;1.85;71.51
25855;BME280;13680;49.936;11.344;2024-03-08T02:32:21;96769.47;;;1.91;72.23
25855;BME280;13680;49.936;11.344;2024-03-08T02:34:47;96765.50;;;2.10;71.84
25855;BME280;13680;49.936;11.344;2024-03-08T02:37:13;96757.13;;;2.19;71.08
25855;BME280;13680;49.936;11.344;2024-03-08T02:39:38;96760.19;;;2.10;71.40
25855;BME280;13680;49.936;11.344;2024-03-08T02:42:03;96757.84;;;2.14;71.23
25855;BME280;13680;49.936;11.344;2024-03-08T02:44:29;96770.44;;;2.24;70.70
25855;BME280;13680;49.936;11.344;2024-03-08T02:46:54;96760.13;;;2.05;71.52
25855;BME280;13680;49.936;11.344;2024-03-08T02:49:20;96759.22;;;2.17;70.45
25855;BME280;13680;49.936;11.344;2024-03-08T02:51:46;96762.25;;;2.25;70.68
25855;BME280;13680;49.936;11.344;2024-03-08T02:54:11;96749.63;;;2.16;70.92
25855;BME280;13680;49.936;11.344;2024-03-08T02:56:37;96751.25;;;2.17;70.43
25855;BME280;13680;49.936;11.344;2024-03-08T02:59:02;96748.53;;;2.11;71.07
25855;BME280;13680;49.936;11.344;2024-03-08T03:01:28;96745.94;;;2.17;70.68
25855;BME280;13680;49.936;11.344;2024-03-08T03:03:53;96747.09;;;2.04;70.44
25855;BME280;13680;49.936;11.344;2024-03-08T03:06:19;96748.38;;;2.18;70.61
25855;BME280;13680;49.936;11.344;2024-03-08T03:08:46;96746.44;;;2.13;70.39
25855;BME280;13680;49.936;11.344;2024-03-08T03:11:11;96744.97;;;2.23;70.58
25855;BME280;13680;49.936;11.344;2024-03-08T03:13:39;96748.72;;;2.27;69.84
25855;BME280;13680;49.936;11.344;2024-03-08T03:16:05;96743.09;;;2.01;70.80
25855;BME280;13680;49.936;11.344;2024-03-08T03:18:30;96737.38;;;2.09;70.85
25855;BME280;13680;49.936;11.344;2024-03-08T03:20:58;96738.34;;;2.03;71.07
25855;BME280;13680;49.936;11.344;2024-03-08T03:23:23;96734.28;;;2.18;70.57
25855;BME280;13680;49.936;11.344;2024-03-08T03:25:51;96736.22;;;2.22;70.48
25855;BME280;13680;49.936;11.344;2024-03-08T03:28:17;96726.97;;;2.25;70.41
25855;BME280;13680;49.936;11.344;2024-03-08T03:30:46;96729.91;;;2.06;70.79
25855;BME280;13680;49.936;11.344;2024-03-08T03:33:12;96736.25;;;2.05;71.07
25855;BME280;13680;49.936;11.344;2024-03-08T03:35:39;96732.53;;;1.67;72.08
25855;BME280;13680;49.936;11.344;2024-03-08T03:38:06;96730.81;;;1.95;71.65
25855;BME280;13680;49.936;11.344;2024-03-08T03:40:36;96724.50;;;1.79;72.29
25855;BME280;13680;49.936;11.344;2024-03-08T03:43:02;96730.66;;;1.85;72.40
25855;BME280;13680;49.936;11.344;2024-03-08T03:45:30;96726.91;;;1.80;72.37
25855;BME280;13680;49.936;11.344;2024-03-08T03:48:04;96724.00;;;1.82;72.84
25855;BME280;13680;49.936;11.344;2024-03-08T03:50:29;96726.31;;;1.78;72.92
25855;BME280;13680;49.936;11.344;2024-03-08T03:52:55;96725.47;;;1.73;73.78
25855;BME280;13680;49.936;11.344;2024-03-08T03:55:20;96731.56;;;1.73;73.82
25855;BME280;13680;49.936;11.344;2024-03-08T03:57:47;96722.31;;;1.93;72.59
25855;BME280;13680;49.936;11.344;2024-03-08T04:00:13;96716.22;;;1.75;73.26
25855;BME280;13680;49.936;11.344;2024-03-08T04:02:39;96720.88;;;1.68;73.87
25855;BME280;13680;49.936;11.344;2024-03-08T04:05:05;96711.66;;;1.54;74.53
25855;BME280;13680;49.936;11.344;2024-03-08T04:07:32;96719.59;;;1.71;74.43
25855;BME280;13680;49.936;11.344;2024-03-08T04:09:57;96708.38;;;1.46;75.54
25855;BME280;13680;49.936;11.344;2024-03-08T04:12:22;96717.50;;;1.73;74.29
25855;BME280;13680;49.936;11.344;2024-03-08T04:14:48;96716.25;;;1.98;72.87
25855;BME280;13680;49.936;11.344;2024-03-08T04:17:13;96711.50;;;2.00;72.79
25855;BME280;13680;49.936;11.344;2024-03-08T04:19:38;96712.50;;;1.93;73.48
25855;BME280;13680;49.936;11.344;2024-03-08T04:22:06;96724.00;;;1.82;73.29
25855;BME280;13680;49.936;11.344;2024-03-08T04:24:33;96722.38;;;1.98;72.61
25855;BME280;13680;49.936;11.344;2024-03-08T04:26:58;96725.81;;;1.42;75.10
25855;BME280;13680;49.936;11.344;2024-03-08T04:29:24;96726.38;;;1.44;75.75
25855;BME280;13680;49.936;11.344;2024-03-08T04:31:49;96726.69;;;1.65;74.71
25855;BME280;13680;49.936;11.344;2024-03-08T04:34:20;96724.56;;;1.67;74.26
25855;BME280;13680;49.936;11.344;2024-03-08T04:36:45;96725.03;;;1.81;74.32
25855;BME280;13680;49.936;11.344;2024-03-08T04:39:11;96724.25;;;1.80;73.80
25855;BME280;13680;49.936;11.344;2024-03-08T04:41:38;96723.81;;;1.89;73.77
25855;BME280;13680;49.936;11.344;2024-03-08T04:44:04;96726.78;;;2.09;72.50
25855;BME280;13680;49.936;11.344;2024-03-08T04:46:29;96726.97;;;2.25;71.79
25855;BME280;13680;49.936;11.344;2024-03-08T04:48:55;96722.25;;;1.71;73.68
25855;BME280;13680;49.936;11.344;2024-03-08T04:51:22;96726.41;;;1.84;73.79
25855;BME280;13680;49.936;11.344;2024-03-08T04:53:47;96721.34;;;1.99;72.75
25855;BME280;13680;49.936;11.344;2024-03-08T04:56:12;96715.19;;;1.76;73.47
25855;BME280;13680;49.936;11.344;2024-03-08T04:58:38;96715.94;;;1.55;74.24
25855;BME280;13680;49.936;11.344;2024-03-08T05:01:03;96715.38;;;1.92;72.98
25855;BME280;13680;49.936;11.344;2024-03-08T05:03:28;96707.72;;;1.56;74.50
25855;BME280;13680;49.936;11.344;2024-03-08T05:05:55;96716.88;;;1.49;74.84
25855;BME280;13680;49.936;11.344;2024-03-08T05:08:21;96706.63;;;1.52;74.75
25855;BME280;13680;49.936;11.344;2024-03-08T05:10:46;96702.56;;;1.67;74.66
25855;BME280;13680;49.936;11.344;2024-03-08T05:13:12;96699.47;;;1.53;75.18
25855;BME280;13680;49.936;11.344;2024-03-08T05:15:38;96695.66;;;1.83;73.81
25855;BME280;13680;49.936;11.344;2024-03-08T05:18:04;96696.91;;;1.97;73.19
25855;BME280;13680;49.936;11.344;2024-03-08T05:20:30;96693.59;;;1.90;73.51
25855;BME280;13680;49.936;11.344;2024-03-08T05:22:56;96693.66;;;1.73;73.98
25855;BME280;13680;49.936;11.344;2024-03-08T05:25:22;96703.81;;;1.98;73.19
25855;BME280;13680;49.936;11.344;2024-03-08T05:27:47;96694.56;;;2.01;72.99
25855;BME280;13680;49.936;11.344;2024-03-08T05:30:13;96688.69;;;1.99;72.54
25855;BME280;13680;49.936;11.344;2024-03-08T05:32:41;96695.28;;;1.96;72.73
25855;BME280;13680;49.936;11.344;2024-03-08T05:35:10;96700.44;;;1.86;72.79
25855;BME280;13680;49.936;11.344;2024-03-08T05:37:37;96692.94;;;1.77;73.52
25855;BME280;13680;49.936;11.344;2024-03-08T05:40:03;96691.00;;;1.73;73.69
25855;BME280;13680;49.936;11.344;2024-03-08T05:42:33;96691.34;;;1.42;76.57
25855;BME280;13680;49.936;11.344;2024-03-08T05:44:59;96691.03;;;1.56;75.00
25855;BME280;13680;49.936;11.344;2024-03-08T05:47:24;96694.38;;;1.68;75.06
25855;BME280;13680;49.936;11.344;2024-03-08T05:49:49;96684.75;;;1.62;75.21
25855;BME280;13680;49.936;11.344;2024-03-08T05:52:15;96685.88;;;1.49;75.76
25855;BME280;13680;49.936;11.344;2024-03-08T05:54:40;96698.50;;;1.59;76.31
25855;BME280;13680;49.936;11.344;2024-03-08T05:57:06;96693.25;;;1.64;76.35
25855;BME280;13680;49.936;11.344;2024-03-08T05:59:31;96693.25;;;1.64;76.60
25855;BME280;13680;49.936;11.344;2024-03-08T06:01:56;96685.44;;;1.74;76.16
25855;BME280;13680;49.936;11.344;2024-03-08T06:04:22;96684.22;;;1.82;75.25
25855;BME280;13680;49.936;11.344;2024-03-08T06:06:48;96690.94;;;1.68;76.25
25855;BME280;13680;49.936;11.344;2024-03-08T06:09:13;96673.66;;;1.65;77.03
25855;BME280;13680;49.936;11.344;2024-03-08T06:11:42;96683.06;;;1.73;76.52
25855;BME280;13680;49.936;11.344;2024-03-08T06:14:08;96681.44;;;2.11;75.55
25855;BME280;13680;49.936;11.344;2024-03-08T06:16:33;96687.84;;;2.15;74.74
25855;BME280;13680;49.936;11.344;2024-03-08T06:19:00;96683.81;;;2.12;75.04
25855;BME280;13680;49.936;11.344;2024-03-08T06:21:28;96670.00;;;2.33;74.45
25855;BME280;13680;49.936;11.344;2024-03-08T06:23:53;96667.50;;;2.21;74.77
25855;BME280;13680;49.936;11.344;2024-03-08T06:26:25;96668.91;;;2.56;73.18
25855;BME280;13680;49.936;11.344;2024-03-08T06:28:53;96673.50;;;2.60;72.93
25855;BME280;13680;49.936;11.344;2024-03-08T06:31:18;96667.50;;;2.75;72.67
25855;BME280;13680;49.936;11.344;2024-03-08T06:33:45;96672.22;;;2.41;73.70
25855;BME280;13680;49.936;11.344;2024-03-08T06:36:10;96672.09;;;2.80;72.32
25855;BME280;13680;49.936;11.344;2024-03-08T06:38:39;96666.69;;;3.02;71.64
25855;BME280;13680;49.936;11.344;2024-03-08T06:41:09;96672.38;;;2.84;71.37
25855;BME280;13680;49.936;11.344;2024-03-08T06:43:34;96666.16;;;3.00;70.99
25855;BME280;13680;49.936;11.344;2024-03-08T06:45:59;96667.41;;;2.92;71.29
25855;BME280;13680;49.936;11.344;2024-03-08T06:48:25;96659.31;;;3.09;70.96
25855;BME280;13680;49.936;11.344;2024-03-08T06:50:50;96652.75;;;3.17;70.10
25855;BME280;13680;49.936;11.344;2024-03-08T06:53:16;96653.59;;;3.23;69.96
25855;BME280;13680;49.936;11.344;2024-03-08T06:55:44;96659.88;;;3.11;70.41
25855;BME280;13680;49.936;11.344;2024-03-08T06:58:09;96660.94;;;3.10;70.67
25855;BME280;13680;49.936;11.344;2024-03-08T07:00:36;96658.53;;;3.09;70.60
25855;BME280;13680;49.936;11.344;2024-03-08T07:03:01;96653.03;;;3.21;70.75
25855;BME280;13680;49.936;11.344;2024-03-08T07:05:28;96655.25;;;3.34;70.48
25855;BME280;13680;49.936;11.344;2024-03-08T07:07:53;96658.44;;;3.31;70.65
25855;BME280;13680;49.936;11.344;2024-03-08T07:10:23;96655.78;;;3.31;70.36
25855;BME280;13680;49.936;11.344;2024-03-08T07:12:51;96665.03;;;3.61;69.68
25855;BME280;13680;49.936;11.344;2024-03-08T07:15:18;96663.34;;;3.50;69.46
25855;BME280;13680;49.936;11.344;2024-03-08T07:17:45;96655.38;;;3.50;69.41
25855;BME280;13680;49.936;11.344;2024-03-08T07:20:11;96652.88;;;3.75;68.55
25855;BME280;13680;49.936;11.344;2024-03-08T07:22:38;96645.84;;;3.59;69.19
25855;BME280;13680;49.936;11.344;2024-03-08T07:25:08;96638.97;;;3.68;68.75
25855;BME280;13680;49.936;11.344;2024-03-08T07:27:34;96643.56;;;3.78;68.45
25855;BME280;13680;49.936;11.344;2024-03-08T07:30:02;96644.63;;;3.77;67.95
25855;BME280;13680;49.936;11.344;2024-03-08T07:32:28;96637.63;;;3.60;69.04
25855;BME280;13680;49.936;11.344;2024-03-08T07:34:57;96633.56;;;3.48;69.30
25855;BME280;13680;49.936;11.344;2024-03-08T07:37:23;96632.06;;;3.67;68.82
25855;BME280;13680;49.936;11.344;2024-03-08T07:39:49;96631.91;;;3.84;68.58
25855;BME280;13680;49.936;11.344;2024-03-08T07:42:15;96630.28;;;3.78;68.33
25855;BME280;13680;49.936;11.344;2024-03-08T07:44:41;96637.06;;;4.12;67.58
25855;BME280;13680;49.936;11.344;2024-03-08T07:47:07;96625.59;;;4.01;67.73
25855;BME280;13680;49.936;11.344;2024-03-08T07:49:35;96618.41;;;4.06;67.90
25855;BME280;13680;49.936;11.344;2024-03-08T07:52:00;96611.06;;;4.34;67.17
25855;BME280;13680;49.936;11.344;2024-03-08T07:54:25;96612.72;;;3.82;68.38
25855;BME280;13680;49.936;11.344;2024-03-08T07:56:51;96610.78;;;4.31;67.40
25855;BME280;13680;49.936;11.344;2024-03-08T07:59:17;96608.16;;;3.72;68.77
25855;BME280;13680;49.936;11.344;2024-03-08T08:01:43;96609.00;;;3.83;68.33
25855;BME280;13680;49.936;11.344;2024-03-08T08:04:09;96613.94;;;4.17;67.95
25855;BME280;13680;49.936;11.344;2024-03-08T08:06:40;96609.94;;;4.15;67.94
25855;BME280;13680;49.936;11.344;2024-03-08T08:09:09;96605.72;;;4.29;67.03
25855;BME280;13680;49.936;11.344;2024-03-08T08:11:41;96607.31;;;4.30;67.32
25855;BME280;13680;49.936;11.344;2024-03-08T08:14:09;96601.72;;;4.26;67.82
25855;BME280;13680;49.936;11.344;2024-03-08T08:16:36;96604.63;;;4.15;67.18
25855;BME280;13680;49.936;11.344;2024-03-08T08:19:06;96604.72;;;4.56;66.54
25855;BME280;13680;49.936;11.344;2024-03-08T08:21:35;96586.84;;;4.46;66.12
25855;BME280;13680;49.936;11.344;2024-03-08T08:24:05;96599.38;;;4.61;66.34
25855;BME280;13680;49.936;11.344;2024-03-08T08:26:30;96595.13;;;4.65;65.90
25855;BME280;13680;49.936;11.344;2024-03-08T08:28:56;96587.13;;;4.65;65.87
25855;BME280;13680;49.936;11.344;2024-03-08T08:31:21;96587.97;;;4.86;65.59
25855;BME280;13680;49.936;11.344;2024-03-08T08:33:46;96579.41;;;4.95;65.43
25855;BME280;13680;49.936;11.344;2024-03-08T08:36:14;96573.53;;;5.18;64.58
25855;BME280;13680;49.936;11.344;2024-03-08T08:38:39;96583.97;;;4.99;64.88
25855;BME280;13680;49.936;11.344;2024-03-08T08:41:05;96581.56;;;5.08;64.76
25855;BME280;13680;49.936;11.344;2024-03-08T08:43:31;96571.97;;;4.86;64.53
25855;BME280;13680;49.936;11.344;2024-03-08T08:45:58;96570.06;;;5.18;64.34
25855;BME280;13680;49.936;11.344;2024-03-08T08:48:23;96566.91;;;5.11;64.24
25855;BME280;13680;49.936;11.344;2024-03-08T08:50:50;96565.25;;;5.25;64.29
25855;BME280;13680;49.936;11.344;2024-03-08T08:53:17;96576.72;;;5.20;64.22
25855;BME280;13680;49.936;11.344;2024-03-08T08:55:43;96561.53;;;5.21;64.41
25855;BME280;13680;49.936;11.344;2024-03-08T08:58:10;96565.34;;;6.01;63.51
25855;BME280;13680;49.936;11.344;2024-03-08T09:00:36;96560.81;;;5.86;62.42
25855;BME280;13680;49.936;11.344;2024-03-08T09:03:02;96553.31;;;5.93;62.07
25855;BME280;13680;49.936;11.344;2024-03-08T09:05:27;96549.53;;;6.04;62.20
25855;BME280;13680;49.936;11.344;2024-03-08T09:07:53;96549.94;;;5.72;62.02
25855;BME280;13680;49.936;11.344;2024-03-08T09:10:18;96549.31;;;5.90;62.28
25855;BME280;13680;49.936;11.344;2024-03-08T09:12:44;96547.78;;;6.34;61.58
25855;BME280;13680;49.936;11.344;2024-03-08T09:15:09;96546.53;;;6.21;60.75
25855;BME280;13680;49.936;11.344;2024-03-08T09:17:36;96544.19;;;6.10;61.35
25855;BME280;13680;49.936;11.344;2024-03-08T09:20:06;96538.09;;;6.44;59.87
25855;BME280;13680;49.936;11.344;2024-03-08T09:22:31;96538.94;;;6.39;60.48
25855;BME280;13680;49.936;11.344;2024-03-08T09:24:57;96549.09;;;6.77;59.75
25855;BME280;13680;49.936;11.344;2024-03-08T09:27:22;96530.69;;;7.04;58.66
25855;BME280;13680;49.936;11.344;2024-03-08T09:29:48;96534.66;;;6.78;59.47
25855;BME280;13680;49.936;11.344;2024-03-08T09:32:14;96530.06;;;7.13;58.06
25855;BME280;13680;49.936;11.344;2024-03-08T09:34:39;96526.25;;;7.19;58.34
25855;BME280;13680;49.936;11.344;2024-03-08T09:37:05;96534.47;;;7.52;57.59
25855;BME280;13680;49.936;11.344;2024-03-08T09:39:30;96527.75;;;7.79;57.01
25855;BME280;13680;49.936;11.344;2024-03-08T09:41:56;96522.72;;;8.15;56.51
25855;BME280;13680;49.936;11.344;2024-03-08T09:44:22;96523.22;;;8.36;55.46
25855;BME280;13680;49.936;11.344;2024-03-08T09:46:49;96516.06;;;8.51;54.80
25855;BME280;13680;49.936;11.344;2024-03-08T09:49:16;96511.19;;;8.53;54.10
25855;BME280;13680;49.936;11.344;2024-03-08T09:51:42;96523.13;;;8.42;55.48
25855;BME280;13680;49.936;11.344;2024-03-08T09:54:07;96507.97;;;8.56;53.75
25855;BME280;13680;49.936;11.344;2024-03-08T09:56:34;96507.09;;;8.75;53.57
25855;BME280;13680;49.936;11.344;2024-03-08T09:59:00;96503.53;;;8.46;54.46
25855;BME280;13680;49.936;11.344;2024-03-08T10:01:44;96497.16;;;9.22;53.86
25855;BME280;13680;49.936;11.344;2024-03-08T10:04:11;96489.34;;;8.79;53.59
25855;BME280;13680;49.936;11.344;2024-03-08T10:06:37;96490.63;;;9.42;51.89
25855;BME280;13680;49.936;11.344;2024-03-08T10:09:02;96490.13;;;9.54;50.75
25855;BME280;13680;49.936;11.344;2024-03-08T10:11:27;96489.31;;;9.81;51.68
25855;BME280;13680;49.936;11.344;2024-03-08T10:13:54;96490.00;;;9.59;51.28
25855;BME280;13680;49.936;11.344;2024-03-08T10:16:19;96489.44;;;9.34;52.86
25855;BME280;13680;49.936;11.344;2024-03-08T10:18:45;96481.88;;;9.64;50.78
25855;BME280;13680;49.936;11.344;2024-03-08T10:21:11;96489.16;;;10.14;51.24
25855;BME280;13680;49.936;11.344;2024-03-08T10:23:37;96479.63;;;10.08;49.85
25855;BME280;13680;49.936;11.344;2024-03-08T10:26:10;96476.00;;;9.76;50.76
25855;BME280;13680;49.936;11.344;2024-03-08T10:28:36;96473.31;;;9.62;51.28
25855;BME280;13680;49.936;11.344;2024-03-08T10:31:01;96467.13;;;9.76;50.11
25855;BME280;13680;49.936;11.344;2024-03-08T10:33:27;96468.56;;;9.45;51.86
25855;BME280;13680;49.936;11.344;2024-03-08T10:35:53;96463.72;;;9.98;50.00
25855;BME280;13680;49.936;11.344;2024-03-08T10:38:22;96465.72;;;9.92;50.72
25855;BME280;13680;49.936;11.344;2024-03-08T10:40:48;96460.88;;;10.85;49.21
25855;BME280;13680;49.936;11.344;2024-03-08T10:43:23;96461.03;;;10.80;49.05
25855;BME280;13680;49.936;11.344;2024-03-08T10:45:59;96470.19;;;10.79;47.80
25855;BME280;13680;49.936;11.344;2024-03-08T10:48:36;96461.16;;;10.75;48.41
25855;BME280;13680;49.936;11.344;2024-03-08T10:51:06;96469.91;;;10.80;47.73
25855;BME280;13680;49.936;11.344;2024-03-08T10:53:36;96463.09;;;10.83;48.06
25855;BME280;13680;49.936;11.344;2024-03-08T10:56:04;96468.44;;;10.15;48.75
25855;BME280;13680;49.936;11.344;2024-03-08T10:58:30;96463.47;;;10.68;48.31
25855;BME280;13680;49.936;11.344;2024-03-08T11:00:57;96460.84;;;11.08;48.44
25855;BME280;13680;49.936;11.344;2024-03-08T11:08:41;96450.19;;;12.27;45.17
25855;BME280;13680;49.936;11.344;2024-03-08T11:11:30;96454.41;;;11.75;44.87
25855;BME280;13680;49.936;11.344;2024-03-08T11:13:56;96445.09;;;11.82;45.20
25855;BME280;13680;49.936;11.344;2024-03-08T11:18:58;96448.38;;;11.70;45.25
25855;BME280;13680;49.936;11.344;2024-03-08T11:21:30;96444.97;;;11.95;44.47
25855;BME280;13680;49.936;11.344;2024-03-08T11:24:06;96439.38;;;11.83;45.25
25855;BME280;13680;49.936;11.344;2024-03-08T11:26:33;96443.84;;;12.40;43.03
25855;BME280;13680;49.936;11.344;2024-03-08T11:32:09;96418.31;;;12.29;44.28
25855;BME280;13680;49.936;11.344;2024-03-08T11:34:43;96418.16;;;12.08;44.29
25855;BME280;13680;49.936;11.344;2024-03-08T11:37:16;96416.13;;;12.05;44.25
25855;BME280;13680;49.936;11.344;2024-03-08T11:39:52;96415.06;;;11.57;44.71
25855;BME280;13680;49.936;11.344;2024-03-08T11:42:19;96416.41;;;12.38;44.86
25855;BME280;13680;49.936;11.344;2024-03-08T11:44:47;96414.47;;;12.56;43.03
25855;BME280;13680;49.936;11.344;2024-03-08T11:47:14;96387.16;;;13.14;41.85
25855;BME280;13680;49.936;11.344;2024-03-08T11:49:40;96398.38;;;12.86;42.87
25855;BME280;13680;49.936;11.344;2024-03-08T11:52:15;96389.00;;;12.92;42.47
25855;BME280;13680;49.936;11.344;2024-03-08T11:54:41;96389.44;;;13.33;41.96
25855;BME280;13680;49.936;11.344;2024-03-08T11:57:07;96387.66;;;13.46;41.34
25855;BME280;13680;49.936;11.344;2024-03-08T11:59:34;96380.16;;;13.13;41.66
25855;BME280;13680;49.936;11.344;2024-03-08T12:02:02;96372.97;;;13.77;41.90
25855;BME280;13680;49.936;11.344;2024-03-08T12:04:29;96363.03;;;14.57;40.31
25855;BME280;13680;49.936;11.344;2024-03-08T12:06:54;96360.66;;;14.43;39.96
25855;BME280;13680;49.936;11.344;2024-03-08T12:09:20;96358.38;;;14.45;40.40
25855;BME280;13680;49.936;11.344;2024-03-08T12:11:50;96355.50;;;13.74;40.47
25855;BME280;13680;49.936;11.344;2024-03-08T12:14:16;96349.91;;;13.80;40.60
25855;BME280;13680;49.936;11.344;2024-03-08T12:16:42;96345.16;;;14.65;39.41
25855;BME280;13680;49.936;11.344;2024-03-08T12:19:08;96345.31;;;13.59;40.32
25855;BME280;13680;49.936;11.344;2024-03-08T12:21:35;96343.50;;;13.12;42.13
25855;BME280;13680;49.936;11.344;2024-03-08T12:24:10;96342.19;;;13.90;40.71
25855;BME280;13680;49.936;11.344;2024-03-08T12:26:37;96321.53;;;14.40;38.71
25855;BME280;13680;49.936;11.344;2024-03-08T12:29:24;96319.69;;;14.20;39.34
25855;BME280;13680;49.936;11.344;2024-03-08T12:31:58;96327.94;;;13.39;40.43
25855;BME280;13680;49.936;11.344;2024-03-08T12:34:26;96334.00;;;13.36;39.95
25855;BME280;13680;49.936;11.344;2024-03-08T12:36:57;96319.91;;;13.94;39.67
25855;BME280;13680;49.936;11.344;2024-03-08T12:39:23;96331.19;;;13.74;40.27
25855;BME280;13680;49.936;11.344;2024-03-08T12:41:52;96324.28;;;14.65;39.01
25855;BME280;13680;49.936;11.344;2024-03-08T12:44:18;96317.53;;;15.21;37.66
25855;BME280;13680;49.936;11.344;2024-03-08T12:46:44;96329.38;;;15.04;37.90
25855;BME280;13680;49.936;11.344;2024-03-08T12:49:10;96317.09;;;15.06;37.58
25855;BME280;13680;49.936;11.344;2024-03-08T12:51:38;96300.25;;;15.26;37.11
25855;BME280;13680;49.936;11.344;2024-03-08T12:54:07;96314.72;;;15.05;37.38
25855;BME280;13680;49.936;11.344;2024-03-08T12:56:34;96295.06;;;14.59;38.17
25855;BME280;13680;49.936;11.344;2024-03-08T12:59:01;96299.97;;;14.32;38.48
25855;BME280;13680;49.936;11.344;2024-03-08T13:01:26;96298.28;;;13.94;39.29
25855;BME280;13680;49.936;11.344;2024-03-08T13:03:52;96290.78;;;14.57;38.32
25855;BME280;13680;49.936;11.344;2024-03-08T13:06:19;96283.09;;;14.01;38.86